Central Sonoma County Latest

32 Stations

15 Minute Data | America/Los_Angeles
as of 7/14/24 1:44 AM PDT
Station Date Time Temp (°F) RH (%) Dew Pt (°F) Wind Spd (mph) Wind Dir (°) Wind Gust (mph) Latest Rain (In) Daily Rain (In) Daily Min Temp (°F) Daily Max Temp (°F)
Healdsburg-South (Sodini) 7/14/24 0130 54.0   0.9 91   5 51.3   0.6 0.0   0.0 N | 0 0.0   0.0 0.00 0.00 53.4   1.1 54.1   0.9
Windsor-East (Ranch 16) 7/14/24 0130 52.9   0.1 93   2 50.9   0.8 0.5   0.1 ESE | 112 1.5   0.0 0.00 0.00 52.4   0.0 53.3   0.1
Windsor-NW (Ranch 8) 7/14/24 0130 55.2   0.4 83   0 50.2   0.5 0.0   0.0 N | 0 0.0   0.0 0.00 0.00 55.1   0.4 55.6   0.3
Mark West-North (Ranch 14) 7/14/24 0130 54.5   0.6 91   6 52.0   1.3 0.7   0.6 SW | 228 2.2   1.0 0.00 0.00 54.4   0.6 55.2   0.4
Windsor-SE (Silk Rd) 7/14/24 0115 53.2   1.1 91   3 50.8   0.2 0.0   0.0 NNW | 330 0.4   0.4 0.00 0.00 53.0   1.2 53.5   0.9
Fulton-NW (Ranch 5) 7/14/24 0130 53.7   0.2 93   5 51.9   1.2 0.7   0.2 ENE | 77 2.4   0.5 0.00 0.00 53.6   0.2 54.3   0.0
Windsor-South (Laughlin Rd) 7/14/24 0130 53.7   0.0 - - - - - 0.00 0.00 53.1   0.2 54.9   0.6
Fulton-SE (Barnes Rd) 7/14/24 0130 56.0   0.6 87   6 52.3   1.5 1.6   0.2 ESE | 114 4.0   0.1 0.00 0.00 55.6   0.8 56.6   0.1
Fulton-SW (Ranch 21) 7/14/24 0130 53.8   0.5 - - 2.1   0.1 ESE | 120 3.0   0.2 0.00 0.00 53.6   0.6 54.3   0.7
Santa Rosa-NW (Goldfields) 7/14/24 0130 54.1   0.6 94   2 52.3   1.2 2.1   0.1 SE | 125 3.0   1.0 0.00 0.00 53.7   0.2 54.5   0.7
Goldfields Remote 5/8/24 1630 84.1   13.4 - - - - - - - 68.0   2.4 84.5   12.8
NW Santa Rosa (Piner Road) 7/14/24 0130 53.0   0.0 96   1 51.8   0.4 1.5   1.0 ESE | 115 2.5   0.7 0.00 0.00 52.8   0.2 53.5   0.3
River Rd South (Denner Ranch) 7/14/24 0130 52.4   0.2 94   2 50.7   0.4 2.8   0.2 E | 95 3.9   0.2 - - 51.8   0.4 52.8   0.0
West Santa Rosa (LOV Vineyard) 7/14/24 0130 53.4   0.5 95   2 51.9   1.0 0.8   0.1 ESE | 114 1.4   0.7 0.00 0.00 53.1   0.2 53.6   0.5
Guerneville Rd (Prokopakis) 7/14/24 0130 53.6   0.1 94   3 52.0   0.7 - - - 0.00 0.00 53.5   0.2 54.0   0.3
Guerneville Rd West (Balletto) 7/14/24 0130 52.9   0.1 92   1 50.8   0.2 1.3   0.3 SE | 141 2.1   0.1 0.00 0.00 52.7   0.2 53.8   0.2
Guerneville Rd East (Rich Ranch) 7/14/24 0130 52.9   0.1 91   0 50.3   0.0 - - - - - 52.9   0.0 53.4   0.3
Sanchietti Ranch 7/14/24 0130 56.0   2.9 96   1 54.9   2.7 3.4   1.5 SSW | 213 7.8   4.4 0.00 0.00 55.1   2.2 56.0   2.6
Occidental Rd (Sebastopol) 7/14/24 0130 54.9   3.0 100   0 55.0   3.1 2.5   1.9 S | 190 7.9   6.6 0.00 0.00 54.8   3.2 55.3   2.8
Lower Westside Rd (Ranch 12) 7/14/24 0130 54.7   0.6 90   2 52.0   1.0 0.4   0.4 ENE | 70 2.0   2.0 0.00 0.00 53.7   0.2 55.0   0.2
Guerneville (Laughlin Rd) 7/14/24 0130 52.7   1.9 90   1 49.8   1.4 0.2   0.6 NE | 43 1.0   1.4 0.00 0.00 52.7   1.9 53.2   1.8
Korbel (Winery) 7/14/24 0130 55.2   2.1 90   5 52.4   0.5 1.4   1.1 NW | 312 3.4   2.3 0.00 0.00 55.1   2.1 55.3   2.2
Forestville (Shone Farms) 7/14/24 0130 54.0   0.2 91   2 51.5   0.6 0.9   0.5 ENE | 68 2.4   0.5 0.00 0.00 52.0   0.0 55.5   0.4
Forestville-NE (Ranch 30) 7/14/24 0130 53.3   0.4 92   2 51.2   0.2 1.4   1.3 ESE | 109 3.8   0.7 0.00 0.00 52.8   0.5 53.8   0.0
Green Valley Vineyard 7/14/24 0130 52.2   0.3 93   1 50.3   0.1 0.6   0.1 NNW | 345 1.8   0.2 0.00 0.00 51.5   0.7 52.5   0.4
Green Valley (Sanchietti) 7/14/24 0130 53.6   0.4 - - - - - - - 53.0   0.1 55.6   0.8
Graton-West (Dutton Ranch) 7/14/24 0130 53.0   0.5 100   0 53.0   0.4 0.3   0.6 NNW | 342 1.3   1.4 0.00 0.00 52.6   0.5 54.4   0.2
Graton-South (Mill Station Rd) 7/14/24 0130 55.4   2.8 93   3 53.4   1.9 1.3   0.7 S | 171 4.2   0.1 0.00 0.00 55.0   2.7 56.2   3.3
Occidental (Horseshoe Bend) 7/14/24 0130 51.7   1.2 96   1 50.7   1.0 - - - 0.00 0.00 51.6   1.2 52.4   1.5
Sexton Valley (Jacqueline's Blk) 7/14/24 0130 55.7   3.0 94   2 53.9   2.4 1.5   0.0 SW | 229 8.5   2.6 0.00 0.00 55.6   3.1 55.8   2.8
Sebastopol Hills (Burnside Rd) 7/14/24 0130 54.1   2.8 99   1 53.8   2.6 4.1   0.2 SW | 223 7.5   1.0 0.00 0.00 54.1   2.8 54.3   2.6
Seaview/Fort Ross (Hirsch) 7/14/24 0130 57.0   22.6 68   34 46.5   2.6 2.1   0.8 ESE | 103 3.2   0.0 0.00 0.00 57.0   22.1 60.3   20.7
Max     57.0 100 55.0 4.1 - 8.5 0.00 0.00 57.0 60.3
Avg     54.0 92 51.7 1.3 - 3.1 0.00 - - -
Min     51.7 68 46.5 0.0 - 0.0 0.00 0.00 51.5 52.4